Time;durP1;ratioP1;P1;durP2;ratioP2;P2;SDS_P1;SDS_P2;PMS_P1;PMS_P2;Temp;Humidity;BMP_temperature;BMP_pressure;BME280_temperature;BME280_humidity;BME280_pressure;Samples;Min_cycle;Max_cycle;Signal;HPM_P1;HPM_P2
2022/06/05 00:01:31;;;;;;;6.93;3.83;;;;;;;25.18;58.00;99697.31;4435875;32;34914;-61
2022/06/05 00:04:17;;;;;;;8.00;4.22;;;;;;;25.17;58.40;99701.09;4448657;32;33542;-63
2022/06/05 00:06:48;;;;;;;7.65;4.20;;;;;;;25.03;58.74;99697.47;4445270;32;34280;-64
2022/06/05 00:09:19;;;;;;;8.93;4.50;;;;;;;25.08;58.67;99694.97;4432517;32;32488;-63
2022/06/05 00:11:58;;;;;;;7.72;4.87;;;;;;;25.05;59.05;99693.47;4440618;32;32337;-63
2022/06/05 00:14:25;;;;;;;6.50;4.62;;;;;;;24.98;59.41;99689.91;4440937;32;33093;-63
2022/06/05 00:16:53;;;;;;;8.98;4.37;;;;;;;24.99;59.46;99693.47;4443130;32;32276;-62
2022/06/05 00:19:21;;;;;;;7.47;4.97;;;;;;;24.87;59.98;99687.78;4438715;32;32730;-62
2022/06/05 00:21:49;;;;;;;9.02;5.18;;;;;;;24.66;60.67;99688.81;4446207;32;34173;-62
2022/06/05 00:24:17;;;;;;;9.73;5.53;;;;;;;24.74;60.41;99687.75;4447877;32;33429;-62
2022/06/05 00:27:02;;;;;;;7.80;5.15;;;;;;;24.36;61.62;99685.53;4440485;32;35069;-65
2022/06/05 00:29:46;;;;;;;8.90;6.05;;;;;;;24.67;60.76;99687.75;4428496;32;33646;-64
2022/06/05 00:32:37;;;;;;;11.30;5.75;;;;;;;24.63;60.57;99683.75;4434181;32;33993;-62
2022/06/05 00:35:07;;;;;;;11.48;6.10;;;;;;;24.48;60.93;99680.34;4428652;32;33993;-65
2022/06/05 00:37:46;;;;;;;8.10;5.32;;;;;;;24.45;60.95;99683.50;4438749;32;33869;-62
2022/06/05 00:40:33;;;;;;;7.50;5.57;;;;;;;24.60;60.41;99681.44;4437391;32;35616;-62
2022/06/05 00:43:04;;;;;;;8.10;5.30;;;;;;;24.65;60.05;99676.16;4443865;32;33937;-62
2022/06/05 00:45:32;;;;;;;8.98;6.10;;;;;;;24.84;59.31;99669.88;4441581;32;32225;-64
2022/06/05 00:48:00;;;;;;;9.23;5.60;;;;;;;24.90;58.90;99668.19;4434989;32;33949;-64
2022/06/05 00:50:30;;;;;;;9.82;5.78;;;;;;;24.80;59.20;99667.78;4440689;32;35005;-63
2022/06/05 00:53:00;;;;;;;8.23;5.50;;;;;;;24.85;58.91;99665.25;4435155;32;33539;-62
2022/06/05 00:55:30;;;;;;;8.85;5.12;;;;;;;25.01;58.32;99664.84;4439434;32;33174;-62
2022/06/05 00:57:58;;;;;;;8.18;5.35;;;;;;;25.02;58.26;99660.22;4443623;32;33052;-61
2022/06/05 01:00:32;;;;;;;7.37;5.68;;;;;;;25.08;58.07;99659.38;4433832;32;34021;-63
2022/06/05 01:03:03;;;;;;;8.63;5.32;;;;;;;25.27;57.47;99652.22;4439506;32;32750;-64
2022/06/05 01:05:31;;;;;;;7.12;4.90;;;;;;;25.24;57.54;99655.38;4440928;32;33357;-64
2022/06/05 01:07:58;;;;;;;7.47;5.60;;;;;;;25.19;57.74;99642.31;4443874;32;33861;-62
2022/06/05 01:10:43;;;;;;;8.00;5.72;;;;;;;25.30;57.31;99644.41;4438106;32;33902;-63
2022/06/05 01:13:26;;;;;;;10.13;5.60;;;;;;;25.30;57.39;99647.16;4449292;32;32824;-63
2022/06/05 01:16:00;;;;;;;8.27;5.95;;;;;;;25.33;57.34;99648.63;4432477;32;33521;-63
2022/06/05 01:18:34;;;;;;;7.70;5.80;;;;;;;25.18;57.64;99645.28;4435263;32;32529;-63
2022/06/05 01:21:07;;;;;;;7.90;5.87;;;;;;;25.28;57.28;99648.41;4435584;32;35058;-62
2022/06/05 01:23:57;;;;;;;9.00;5.80;;;;;;;25.22;57.48;99647.38;4443346;32;33829;-63
2022/06/05 01:26:32;;;;;;;8.50;5.40;;;;;;;25.37;56.95;99655.38;4441983;32;33398;-64
2022/06/05 01:28:59;;;;;;;;;;;;;;;25.36;56.79;99655.56;4440974;32;34070;-62
2022/06/05 01:31:41;;;;;;;8.15;5.50;;;;;;;25.28;57.05;99649.25;4436987;32;34489;-65
2022/06/05 01:34:15;;;;;;;10.05;5.28;;;;;;;25.33;56.81;99645.91;4445364;32;32642;-63
2022/06/05 01:36:48;;;;;;;7.32;5.65;;;;;;;25.28;57.12;99648.41;4437246;32;33477;-63
2022/06/05 01:39:24;;;;;;;7.55;5.43;;;;;;;25.36;56.76;99648.22;4444960;32;32516;-64
2022/06/05 01:41:55;;;;;;;9.13;6.60;;;;;;;25.31;56.91;99656.22;4433335;32;33869;-63
2022/06/05 01:44:28;;;;;;;7.57;5.93;;;;;;;25.20;57.00;99652.22;4436779;32;32154;-65
2022/06/05 01:47:00;;;;;;;8.90;6.95;;;;;;;25.14;57.36;99655.81;4432172;32;33272;-64
2022/06/05 01:49:33;;;;;;;7.87;6.22;;;;;;;25.13;57.32;99650.53;4433043;32;33445;-65
2022/06/05 01:52:13;;;;;;;8.38;6.15;;;;;;;25.25;57.10;99648.84;4429575;32;32879;-65
2022/06/05 01:54:48;;;;;;;7.65;5.55;;;;;;;25.13;57.42;99648.63;4445948;32;33976;-64
2022/06/05 01:57:17;;;;;;;9.38;5.90;;;;;;;25.24;57.06;99648.00;4434614;32;33496;-67
2022/06/05 02:00:04;;;;;;;9.30;5.72;;;;;;;25.33;56.76;99640.41;4429854;32;34992;-66
2022/06/05 02:02:41;;;;;;;9.05;6.00;;;;;;;25.40;56.62;99654.09;4439790;32;33664;-64
2022/06/05 02:05:11;;;;;;;10.23;6.55;;;;;;;25.09;57.25;99650.09;4435191;32;35193;-66
2022/06/05 02:07:46;;;;;;;9.52;6.12;;;;;;;25.11;57.32;99648.00;4434050;32;34168;-64
2022/06/05 02:10:32;;;;;;;;;;;;;;;25.15;57.11;99657.50;4445196;32;34706;-67
2022/06/05 02:12:59;;;;;;;;;;;;;;;25.21;57.06;99651.16;4434669;32;34252;-65
2022/06/05 02:15:28;;;;;;;9.60;6.15;;;;;;;25.08;57.42;99654.72;4435989;32;34254;-64
2022/06/05 02:17:57;;;;;;;8.45;6.32;;;;;;;24.98;57.78;99658.94;4441109;32;33183;-66
2022/06/05 02:20:25;;;;;;;10.07;6.25;;;;;;;25.06;57.38;99656.81;4443388;32;33808;-63
2022/06/05 02:22:54;;;;;;;8.57;6.57;;;;;;;24.96;57.65;99644.63;4442572;32;33457;-65
2022/06/05 02:25:24;;;;;;;9.10;6.57;;;;;;;25.14;57.10;99647.59;4437371;32;33701;-65
2022/06/05 02:27:58;;;;;;;8.40;6.47;;;;;;;25.01;57.43;99650.31;4432910;32;32627;-64
2022/06/05 02:30:35;;;;;;;8.63;6.10;;;;;;;25.11;57.15;99658.94;4451605;32;33697;-64
2022/06/05 02:33:11;;;;;;;9.38;6.12;;;;;;;24.85;57.99;99657.87;4447871;32;33657;-66
2022/06/05 02:35:47;;;;;;;8.50;6.10;;;;;;;24.98;57.44;99648.00;4449338;32;34868;-64
2022/06/05 02:38:47;;;;;;;10.85;6.55;;;;;;;25.01;57.27;99647.59;4434570;32;33319;-65
2022/06/05 02:41:32;;;;;;;8.43;6.28;;;;;;;25.13;56.88;99640.41;4433994;32;34045;-66
2022/06/05 02:44:29;;;;;;;9.57;7.00;;;;;;;25.00;57.53;99638.50;4432540;32;35346;-65
2022/06/05 02:47:17;;;;;;;9.60;7.47;;;;;;;24.66;58.66;99638.72;4434386;32;34116;-64
2022/06/05 02:49:56;;;;;;;7.87;6.72;;;;;;;24.72;58.46;99649.66;4438751;32;33954;-65
2022/06/05 02:52:24;;;;;;;10.65;7.20;;;;;;;24.87;57.97;99647.53;4431412;32;33742;-65
2022/06/05 02:54:59;;;;;;;10.25;7.43;;;;;;;24.94;57.44;99644.81;4450234;32;33554;-65
2022/06/05 02:57:27;;;;;;;9.27;7.60;;;;;;;25.02;57.30;99647.34;4431980;32;33737;-66
2022/06/05 02:59:54;;;;;;;11.80;8.07;;;;;;;24.92;57.63;99655.16;4434811;32;34545;-65
2022/06/05 03:05:08;;;;;;;11.05;7.80;;;;;;;25.02;57.20;99650.09;4436865;32;33807;-66
2022/06/05 03:07:36;;;;;;;9.13;7.28;;;;;;;25.00;57.28;99641.22;4435285;32;33467;-64
2022/06/05 03:10:04;;;;;;;10.93;8.05;;;;;;;25.03;56.94;99659.16;4443716;32;35331;-66
2022/06/05 03:12:32;;;;;;;9.77;7.65;;;;;;;24.85;57.53;99657.87;4433976;32;33645;-65
2022/06/05 03:15:01;;;;;;;9.18;6.87;;;;;;;24.97;57.22;99658.09;4435524;32;33880;-66
2022/06/05 03:17:29;;;;;;;8.93;7.72;;;;;;;24.95;57.61;99656.63;4448652;32;33662;-66
2022/06/05 03:19:58;;;;;;;8.00;6.70;;;;;;;24.97;57.45;99644.38;4444991;32;33475;-66
2022/06/05 03:22:26;;;;;;;10.15;7.15;;;;;;;24.90;57.54;99653.66;4438534;32;32537;-66
2022/06/05 03:24:54;;;;;;;8.90;7.62;;;;;;;24.84;57.70;99655.34;4438107;32;33719;-64
2022/06/05 03:27:21;;;;;;;11.98;7.15;;;;;;;24.91;57.60;99649.87;4433193;32;33955;-66
2022/06/05 03:29:50;;;;;;;12.73;7.47;;;;;;;24.96;57.54;99647.34;4433532;32;31628;-66
2022/06/05 03:32:18;;;;;;;10.88;7.22;;;;;;;24.99;57.22;99661.47;4435702;32;33619;-66
2022/06/05 03:34:45;;;;;;;9.93;7.30;;;;;;;24.86;57.72;99662.31;4447612;32;32231;-66
2022/06/05 03:37:13;;;;;;;11.05;7.22;;;;;;;24.87;57.80;99666.72;4440598;32;33831;-67
2022/06/05 03:39:41;;;;;;;10.68;7.93;;;;;;;24.87;57.97;99674.91;4447007;32;33295;-65
2022/06/05 03:42:08;;;;;;;12.88;7.95;;;;;;;24.79;58.23;99679.78;4449829;32;32799;-64
2022/06/05 03:44:37;;;;;;;9.45;7.80;;;;;;;24.79;58.26;99683.34;4448096;32;35136;-65
2022/06/05 03:47:05;;;;;;;11.40;8.80;;;;;;;24.86;58.12;99683.34;4448721;32;33919;-65
2022/06/05 03:49:34;;;;;;;10.05;8.95;;;;;;;24.95;57.69;99692.22;4434702;32;33412;-66
2022/06/05 03:52:03;;;;;;;14.55;9.15;;;;;;;24.91;57.75;99694.53;4441518;32;32752;-66
2022/06/05 03:54:31;;;;;;;11.23;9.02;;;;;;;24.92;57.77;99704.44;4442012;32;32985;-66
2022/06/05 03:57:00;;;;;;;12.68;8.95;;;;;;;24.96;57.80;99707.59;4434288;32;33601;-65
2022/06/05 03:59:28;;;;;;;12.85;8.82;;;;;;;24.95;57.97;99705.91;4439140;32;34323;-66
2022/06/05 04:01:55;;;;;;;11.63;9.60;;;;;;;24.86;58.22;99717.03;4446371;32;33917;-74
2022/06/05 04:04:23;;;;;;;11.07;8.93;;;;;;;25.03;57.82;99712.00;4434098;32;31513;-67
2022/06/05 04:06:51;;;;;;;15.77;9.77;;;;;;;25.14;57.40;99715.22;4431807;32;33803;-67
2022/06/05 04:09:18;;;;;;;14.68;9.50;;;;;;;25.08;57.69;99714.97;4434260;32;34620;-67
2022/06/05 04:11:46;;;;;;;13.65;8.35;;;;;;;25.03;57.99;99720.22;4434798;32;33820;-66
2022/06/05 04:14:13;;;;;;;12.55;9.90;;;;;;;25.07;57.93;99723.38;4433904;32;35425;-66
2022/06/05 04:16:41;;;;;;;13.15;9.13;;;;;;;25.20;57.61;99722.56;4439234;32;34530;-67
2022/06/05 04:19:10;;;;;;;11.63;9.18;;;;;;;25.31;57.44;99736.50;4441883;32;33234;-66
2022/06/05 04:21:41;;;;;;;9.98;8.80;;;;;;;25.32;57.51;99737.34;4439059;32;34834;-66
2022/06/05 04:24:11;;;;;;;12.40;10.00;;;;;;;25.30;57.49;99732.06;4444778;32;33923;-66
2022/06/05 04:26:40;;;;;;;11.90;8.88;;;;;;;25.18;57.85;99731.00;4435096;32;32839;-66
2022/06/05 04:29:08;;;;;;;11.82;8.23;;;;;;;25.35;57.43;99736.06;4434131;32;33361;-66
2022/06/05 04:31:38;;;;;;;9.20;7.28;;;;;;;25.36;57.38;99741.34;4433986;32;33553;-67
2022/06/05 04:34:09;;;;;;;9.77;7.20;;;;;;;25.43;57.27;99747.66;4434768;32;33918;-66
2022/06/05 04:36:36;;;;;;;12.52;8.10;;;;;;;25.32;57.79;99742.81;4442177;32;33426;-65
2022/06/05 04:39:04;;;;;;;10.13;8.68;;;;;;;25.27;57.82;99748.09;4438164;32;33276;-66
2022/06/05 04:41:32;;;;;;;14.73;10.30;;;;;;;24.91;59.15;99742.94;4437058;32;34516;-66
2022/06/05 04:44:00;;;;;;;14.82;11.80;;;;;;;24.41;60.79;99740.50;4440795;32;33687;-65
2022/06/05 04:46:28;;;;;;;14.32;12.02;;;;;;;24.44;60.85;99740.09;4433183;32;32660;-66
2022/06/05 04:48:56;;;;;;;19.98;13.13;;;;;;;23.99;62.78;99747.00;4434719;32;34660;-65
2022/06/05 04:51:24;;;;;;;16.60;12.93;;;;;;;23.53;64.08;99750.22;4433150;32;34834;-65
2022/06/05 04:53:53;;;;;;;16.83;13.00;;;;;;;23.14;65.93;99757.06;4448232;32;34713;-66
2022/06/05 04:56:25;;;;;;;18.25;13.30;;;;;;;22.85;67.52;99756.09;4434735;32;32966;-66
2022/06/05 04:58:53;;;;;;;17.05;14.25;;;;;;;23.26;65.82;99766.41;4445858;32;33179;-66
2022/06/05 05:01:28;;;;;;;17.33;13.27;;;;;;;23.11;66.38;99760.16;4444031;32;34823;-66
2022/06/05 05:03:59;;;;;;;16.90;13.80;;;;;;;22.88;67.71;99765.78;4436312;32;33781;-67
2022/06/05 05:06:28;;;;;;;21.52;15.07;;;;;;;22.66;68.36;99765.75;4435173;32;33801;-66
2022/06/05 05:08:56;;;;;;;16.48;13.65;;;;;;;22.38;70.00;99778.44;4437948;32;34652;-66
2022/06/05 05:11:23;;;;;;;19.35;14.75;;;;;;;22.85;67.90;99772.47;4436810;32;32271;-67
2022/06/05 05:13:53;;;;;;;17.77;14.10;;;;;;;22.47;69.22;99789.06;4441155;32;33724;-66
2022/06/05 05:16:21;;;;;;;20.85;15.80;;;;;;;22.86;68.21;99796.03;4435019;32;34688;-64
2022/06/05 05:18:49;;;;;;;20.40;14.87;;;;;;;22.34;69.98;99797.03;4432124;32;33668;-66
2022/06/05 05:21:18;;;;;;;21.23;17.20;;;;;;;22.70;68.77;99798.97;4433676;32;33726;-65
2022/06/05 05:23:47;;;;;;;22.02;16.83;;;;;;;22.61;68.98;99808.31;4436829;32;34537;-64
2022/06/05 05:26:24;;;;;;;20.37;14.68;;;;;;;22.55;69.14;99816.22;4434232;32;32794;-66
2022/06/05 05:28:53;;;;;;;22.30;16.40;;;;;;;22.96;67.70;99810.22;4438907;32;34801;-66
2022/06/05 05:31:23;;;;;;;19.55;15.30;;;;;;;23.06;66.78;99825.44;4442719;32;33633;-66
2022/06/05 05:33:52;;;;;;;22.37;15.27;;;;;;;22.54;68.32;99819.13;4432002;32;34495;-65
2022/06/05 05:36:21;;;;;;;20.65;15.25;;;;;;;22.62;68.09;99818.19;4439502;32;33477;-65
2022/06/05 05:44:41;;;;;;;19.20;12.82;;;;;;;22.66;67.29;99814.88;4417068;32;33613;-66
2022/06/05 05:47:12;;;;;;;17.50;12.07;;;;;;;22.65;67.35;99818.63;4434959;32;33777;-66
2022/06/05 05:49:40;;;;;;;17.30;12.55;;;;;;;22.33;68.93;99815.28;4438116;32;33504;-64
2022/06/05 05:52:08;;;;;;;16.70;12.10;;;;;;;22.82;67.16;99819.25;4450083;32;35013;-65
2022/06/05 05:54:36;;;;;;;15.57;12.05;;;;;;;22.86;66.39;99809.66;4440055;32;35199;-65
2022/06/05 05:57:04;;;;;;;15.57;11.50;;;;;;;22.91;66.18;99811.78;4443139;32;33491;-65
2022/06/05 05:59:32;;;;;;;19.90;11.65;;;;;;;22.64;67.10;99813.38;4439307;32;33057;-66
2022/06/05 06:02:00;;;;;;;14.27;11.15;;;;;;;22.71;67.20;99809.69;4437044;32;33748;-67
2022/06/05 06:04:28;;;;;;;14.43;11.27;;;;;;;22.60;67.54;99812.06;4452953;32;32749;-67
2022/06/05 06:06:56;;;;;;;16.25;11.52;;;;;;;22.92;66.22;99806.16;4437389;32;32939;-66
2022/06/05 06:09:23;;;;;;;13.75;10.15;;;;;;;22.57;67.30;99807.84;4447807;32;32187;-66
2022/06/05 06:11:51;;;;;;;12.80;9.57;;;;;;;23.05;65.94;99812.81;4440072;32;32398;-67
2022/06/05 06:14:18;;;;;;;11.12;8.88;;;;;;;23.14;65.10;99806.19;4443823;32;34784;-67
2022/06/05 06:16:46;;;;;;;13.27;8.38;;;;;;;23.09;64.98;99806.78;4445864;32;34463;-64
2022/06/05 06:19:14;;;;;;;11.43;8.30;;;;;;;23.18;64.17;99800.16;4451867;32;32296;-65
2022/06/05 06:21:41;;;;;;;11.90;7.82;;;;;;;22.94;64.71;99800.53;4449775;32;33984;-67
2022/06/05 06:24:11;;;;;;;11.63;7.47;;;;;;;23.28;63.83;99797.09;4444639;32;33815;-67
2022/06/05 06:26:40;;;;;;;9.93;7.35;;;;;;;23.00;64.98;99791.56;4437735;32;32630;-66
2022/06/05 06:29:09;;;;;;;10.65;7.07;;;;;;;23.16;64.54;99799.50;4445155;32;33403;-66
2022/06/05 06:31:38;;;;;;;10.55;7.32;;;;;;;23.65;62.84;99789.63;4447018;32;34022;-65
2022/06/05 06:34:06;;;;;;;11.00;7.93;;;;;;;23.38;62.92;99783.12;4444379;32;33952;-65
2022/06/05 06:36:34;;;;;;;10.30;7.25;;;;;;;23.34;63.44;99798.19;4451825;32;35227;-67
2022/06/05 06:39:19;;;;;;;11.43;7.57;;;;;;;23.30;62.70;99792.28;4436038;32;31851;-65
2022/06/05 06:41:48;;;;;;;10.73;7.53;;;;;;;23.37;62.38;99792.31;4448562;32;33982;-66
2022/06/05 06:44:16;;;;;;;10.50;7.70;;;;;;;23.57;61.62;99795.25;4442347;32;35245;-66
2022/06/05 06:46:44;;;;;;;10.60;8.45;;;;;;;23.53;61.98;99791.22;4437204;32;33893;-66
2022/06/05 06:49:12;;;;;;;10.05;7.72;;;;;;;23.29;62.86;99795.22;4452351;32;34187;-66
2022/06/05 06:51:40;;;;;;;9.00;7.07;;;;;;;23.48;62.14;99784.47;4437002;32;33585;-65
2022/06/05 06:54:08;;;;;;;12.50;8.18;;;;;;;23.25;62.92;99783.84;4437750;32;35222;-65
2022/06/05 06:56:36;;;;;;;12.02;7.18;;;;;;;23.39;62.40;99776.59;4438036;32;33653;-65
2022/06/05 06:59:04;;;;;;;11.50;7.45;;;;;;;23.65;61.78;99767.78;4447472;32;33172;-67
2022/06/05 07:01:32;;;;;;;10.20;6.90;;;;;;;23.68;61.26;99778.31;4446634;32;33524;-66
2022/06/05 07:04:00;;;;;;;11.23;7.25;;;;;;;23.70;61.21;99782.56;4447872;32;32834;-68
2022/06/05 07:06:27;;;;;;;9.05;6.65;;;;;;;23.74;61.59;99780.28;4445333;32;35082;-66
2022/06/05 07:08:55;;;;;;;10.35;8.02;;;;;;;23.97;60.10;99776.44;4440691;32;32237;-67
2022/06/05 07:11:23;;;;;;;9.52;7.18;;;;;;;24.32;59.30;99769.88;4437147;32;33754;-64
2022/06/05 07:13:51;;;;;;;9.73;8.20;;;;;;;24.22;59.74;99780.34;4444163;32;35062;-64
2022/06/05 07:16:19;;;;;;;9.52;7.70;;;;;;;23.89;59.97;99775.56;4458339;32;34955;-65
2022/06/05 07:18:48;;;;;;;9.20;7.75;;;;;;;23.28;62.93;99780.72;4452612;32;33239;-66
2022/06/05 07:21:18;;;;;;;9.93;7.65;;;;;;;23.87;60.88;99774.91;4452833;32;33707;-65
2022/06/05 07:23:46;;;;;;;11.32;8.70;;;;;;;24.10;59.94;99766.41;4439309;32;34925;-66
2022/06/05 07:26:16;;;;;;;9.02;7.35;;;;;;;24.25;59.02;99766.28;4436778;32;32529;-65
2022/06/05 07:28:43;;;;;;;11.65;8.55;;;;;;;23.97;60.87;99770.97;4442379;32;33379;-65
2022/06/05 07:31:13;;;;;;;10.95;8.25;;;;;;;24.13;59.95;99770.63;4439945;32;34725;-66
2022/06/05 07:33:42;;;;;;;8.90;7.28;;;;;;;24.24;59.09;99769.19;4439072;32;34674;-68
2022/06/05 07:36:16;;;;;;;9.30;7.43;;;;;;;24.64;58.11;99778.47;4439537;32;33787;-65
2022/06/05 07:38:44;;;;;;;10.68;7.57;;;;;;;24.76;57.82;99776.81;4441076;32;34316;-65
2022/06/05 07:41:21;;;;;;;9.05;7.10;;;;;;;24.73;58.32;99774.50;4441159;32;33849;-68
2022/06/05 07:43:49;;;;;;;10.30;7.57;;;;;;;25.30;56.32;99777.81;4448610;32;32521;-65
2022/06/05 07:46:18;;;;;;;9.30;6.75;;;;;;;25.00;56.39;99772.66;4446810;32;34879;-66
2022/06/05 07:48:47;;;;;;;10.23;7.40;;;;;;;25.20;57.32;99780.97;4441004;32;33759;-64
2022/06/05 07:56:51;;;;;;;9.63;7.93;;;;;;;25.03;56.60;99785.09;4442800;32;34110;-66
2022/06/05 07:59:19;;;;;;;10.25;7.82;;;;;;;25.07;57.00;99792.69;4438104;32;34441;-66
2022/06/05 08:01:58;;;;;;;12.85;7.28;;;;;;;25.32;56.11;99798.44;4442138;32;34738;-68
2022/06/05 08:04:27;;;;;;;11.02;8.15;;;;;;;25.12;56.30;99793.97;4435179;32;35153;-68
2022/06/05 08:06:57;;;;;;;10.15;7.45;;;;;;;24.94;56.31;99789.06;4436557;32;34076;-67
2022/06/05 08:09:25;;;;;;;10.32;7.65;;;;;;;24.95;56.26;99791.62;4438232;32;33780;-66
2022/06/05 08:11:53;;;;;;;9.88;8.02;;;;;;;24.75;56.86;99794.31;4442822;32;33980;-66
2022/06/05 08:14:22;;;;;;;11.30;7.53;;;;;;;24.84;57.18;99794.94;4444109;32;35125;-68
2022/06/05 08:16:49;;;;;;;10.65;8.00;;;;;;;24.94;56.50;99789.06;4450377;32;33683;-65
2022/06/05 08:19:22;;;;;;;10.85;7.97;;;;;;;25.20;56.06;99788.31;4448738;32;33244;-65
2022/06/05 08:21:52;;;;;;;11.60;7.55;;;;;;;25.42;55.40;99794.44;4452675;32;34854;-66
2022/06/05 08:24:20;;;;;;;10.50;7.78;;;;;;;25.55;56.11;99788.97;4452383;32;32815;-67
2022/06/05 08:26:49;;;;;;;9.25;6.87;;;;;;;25.34;55.68;99798.25;4451567;32;33944;-66
2022/06/05 08:29:17;;;;;;;9.07;7.75;;;;;;;25.76;55.15;99805.19;4448647;32;32183;-66
2022/06/05 08:31:45;;;;;;;10.13;8.23;;;;;;;25.72;55.60;99803.94;4440816;32;33518;-68
2022/06/05 08:34:14;;;;;;;10.75;8.43;;;;;;;25.50;55.18;99800.56;4437820;32;33008;-67
2022/06/05 08:36:42;;;;;;;10.02;7.62;;;;;;;25.48;55.28;99801.81;4443726;32;32621;-66
2022/06/05 08:42:03;;;;;;;9.93;7.80;;;;;;;25.52;55.73;99805.81;4450210;32;33705;-66
2022/06/05 08:44:57;;;;;;;10.75;7.55;;;;;;;25.98;54.49;99805.00;4435292;32;35228;-66
2022/06/05 08:47:35;;;;;;;10.02;7.40;;;;;;;25.93;54.55;99816.59;4440944;32;34103;-66
2022/06/05 08:50:13;;;;;;;14.05;8.15;;;;;;;25.78;54.46;99807.75;4445620;32;33603;-67
2022/06/05 08:53:13;;;;;;;11.32;8.30;;;;;;;24.76;57.03;99812.41;4432180;32;34501;-66
2022/06/05 08:55:43;;;;;;;8.63;7.40;;;;;;;25.38;55.32;99810.47;4431764;32;35569;-68
2022/06/05 08:58:26;;;;;;;11.18;8.02;;;;;;;25.33;55.81;99805.63;4445050;32;36357;-66
2022/06/05 09:01:08;;;;;;;12.23;8.45;;;;;;;25.57;54.96;99803.31;4448897;32;32286;-68
2022/06/05 09:03:49;;;;;;;10.57;7.82;;;;;;;25.39;55.30;99792.12;4450745;32;33860;-67
2022/06/05 09:06:32;;;;;;;8.98;7.28;;;;;;;25.75;54.66;99795.28;4447465;32;34118;-68
2022/06/05 09:09:05;;;;;;;9.40;7.97;;;;;;;25.99;53.42;99785.56;4449792;32;33575;-66
2022/06/05 09:11:44;;;;;;;10.90;7.47;;;;;;;25.67;53.75;99792.75;4447476;32;33403;-68
2022/06/05 09:14:50;;;;;;;8.07;6.78;;;;;;;26.14;53.14;99792.72;4435868;32;33346;-65
2022/06/05 09:17:20;;;;;;;9.60;7.85;;;;;;;25.63;53.76;99786.03;4446727;32;34088;-66
2022/06/05 09:19:50;;;;;;;9.05;6.70;;;;;;;25.97;52.46;99790.44;4443530;32;33474;-65
2022/06/05 09:22:31;;;;;;;11.35;7.47;;;;;;;26.19;52.34;99793.75;4449199;32;31931;-65
2022/06/05 09:25:08;;;;;;;10.25;7.75;;;;;;;26.01;53.43;99790.84;4451866;32;33586;-65
2022/06/05 09:27:56;;;;;;;8.35;6.85;;;;;;;25.75;53.88;99792.56;4452246;32;34265;-67
2022/06/05 09:30:30;;;;;;;11.43;7.80;;;;;;;26.06;54.37;99787.47;4450777;32;34019;-67
2022/06/05 09:33:16;;;;;;;9.73;8.35;;;;;;;26.53;51.77;99788.19;4441946;32;32771;-65
2022/06/05 09:35:51;;;;;;;11.27;8.88;;;;;;;26.69;52.14;99791.28;4441628;32;34052;-68
2022/06/05 09:38:25;;;;;;;11.65;7.87;;;;;;;26.88;50.90;99792.25;4447899;32;34141;-66
2022/06/05 09:41:04;;;;;;;11.45;8.48;;;;;;;27.34;49.80;99787.53;4447584;32;34115;-66
2022/06/05 09:44:09;;;;;;;12.82;8.82;;;;;;;27.05;50.55;99789.81;4449266;32;33047;-65
2022/06/05 09:46:53;;;;;;;13.88;8.05;;;;;;;26.87;49.59;99804.28;4450557;32;33707;-66
2022/06/05 09:49:42;;;;;;;12.23;8.05;;;;;;;26.67;50.23;99800.78;4447295;32;34060;-67
2022/06/05 09:52:16;;;;;;;9.52;7.62;;;;;;;26.35;51.33;99814.38;4452174;32;32542;-66
2022/06/05 09:54:47;;;;;;;9.93;7.62;;;;;;;27.00;50.28;99819.84;4450744;32;32175;-65
2022/06/05 10:00:32;;;;;;;9.18;7.90;;;;;;;26.92;49.17;99817.34;4439999;32;34772;-66
2022/06/05 10:03:10;;;;;;;13.20;7.87;;;;;;;27.02;49.47;99823.22;4445228;32;34703;-66
2022/06/05 10:05:40;;;;;;;10.07;7.78;;;;;;;26.63;50.02;99824.25;4422329;32;33076;-67
2022/06/05 10:08:13;;;;;;;11.73;7.50;;;;;;;26.59;50.86;99823.84;4436521;32;33513;-66
2022/06/05 10:10:42;;;;;;;10.02;7.20;;;;;;;26.74;50.27;99822.72;4421913;32;32722;-66
2022/06/05 10:13:28;;;;;;;10.27;7.40;;;;;;;27.07;49.02;99823.41;4450630;32;34690;-67
2022/06/05 10:16:02;;;;;;;11.85;9.20;;;;;;;26.98;49.71;99819.22;4441024;32;33474;-65
2022/06/05 10:18:44;;;;;;;10.35;8.40;;;;;;;26.51;50.26;99821.31;4443193;32;33382;-66
2022/06/05 10:21:13;;;;;;;16.10;9.23;;;;;;;26.06;51.04;99818.47;4445120;32;35434;-67
2022/06/05 10:24:07;;;;;;;10.93;8.00;;;;;;;26.56;50.78;99815.22;4423797;32;32751;-65
2022/06/05 10:26:37;;;;;;;10.27;8.65;;;;;;;27.01;49.13;99813.28;4452388;32;33397;-66
2022/06/05 10:29:16;;;;;;;10.38;8.20;;;;;;;26.59;48.93;99810.13;4449007;32;32868;-66
2022/06/05 10:32:11;;;;;;;10.27;7.95;;;;;;;26.40;49.54;99811.84;4442818;32;33883;-67
2022/06/05 10:34:54;;;;;;;9.38;6.85;;;;;;;26.42;49.48;99798.75;4410884;32;32915;-65
2022/06/05 10:37:22;;;;;;;10.85;6.87;;;;;;;26.29;48.27;99801.53;4445707;32;33644;-65
2022/06/05 10:40:22;;;;;;;8.98;6.95;;;;;;;26.27;48.99;99798.19;4451797;32;33590;-65
2022/06/05 10:43:01;;;;;;;8.73;6.12;;;;;;;26.63;47.22;99788.56;4440411;32;33717;-65
2022/06/05 10:45:39;;;;;;;9.23;6.22;;;;;;;26.86;45.13;99779.78;4443123;32;34418;-65
2022/06/05 10:48:38;;;;;;;8.68;5.90;;;;;;;26.52;46.49;99776.38;4443534;32;33490;-66
2022/06/05 10:51:22;;;;;;;7.82;6.15;;;;;;;27.02;45.04;99771.03;4435228;32;33526;-65
2022/06/05 10:54:19;;;;;;;8.30;5.65;;;;;;;27.33;44.07;99777.59;4445427;32;35394;-66
2022/06/05 10:57:19;;;;;;;8.27;5.35;;;;;;;26.13;46.10;99772.69;4449579;32;32988;-66
2022/06/05 10:59:55;;;;;;;6.55;5.18;;;;;;;26.06;46.58;99777.31;4439882;32;31698;-65
2022/06/05 11:02:52;;;;;;;8.27;5.85;;;;;;;27.03;44.03;99771.84;4444893;32;32363;-66
2022/06/05 11:05:38;;;;;;;7.47;5.35;;;;;;;27.33;43.47;99767.47;4437993;32;33789;-68
2022/06/05 11:08:30;;;;;;;6.43;5.03;;;;;;;27.40;41.90;99767.41;4422972;32;33302;-65
2022/06/05 11:14:09;;;;;;;6.32;4.55;;;;;;;27.69;41.16;99751.28;4447752;32;33763;-66
2022/06/05 11:17:02;;;;;;;7.20;5.10;;;;;;;27.49;41.42;99762.47;4446604;32;33820;-66
2022/06/05 11:19:41;;;;;;;7.70;5.28;;;;;;;27.39;41.40;99768.47;4448866;32;32392;-66
2022/06/05 11:22:12;;;;;;;6.70;4.30;;;;;;;27.16;42.07;99764.41;4444544;32;33150;-65
2022/06/05 11:24:48;;;;;;;5.97;4.35;;;;;;;27.11;42.27;99766.09;4447451;32;35694;-65
2022/06/05 11:27:15;;;;;;;6.37;4.68;;;;;;;27.68;40.96;99774.38;4441109;32;33987;-66
2022/06/05 11:30:11;;;;;;;7.40;5.37;;;;;;;27.31;41.18;99763.25;4443039;32;33692;-65
2022/06/05 11:32:55;;;;;;;6.12;4.65;;;;;;;27.40;40.61;99768.22;4429492;32;33594;-67
2022/06/05 11:35:54;;;;;;;8.05;4.80;;;;;;;27.81;39.64;99761.34;4429617;32;31165;-65
2022/06/05 11:38:45;;;;;;;14.73;5.25;;;;;;;27.98;39.58;99769.00;4448333;32;33963;-65
2022/06/05 11:41:41;;;;;;;7.00;4.40;;;;;;;28.05;39.15;99765.09;4450418;32;33942;-67
2022/06/05 11:44:27;;;;;;;5.57;4.35;;;;;;;27.86;41.10;99755.16;4437825;32;31697;-66
2022/06/05 11:47:02;;;;;;;8.05;4.78;;;;;;;28.10;40.57;99762.53;4440775;32;33749;-66
2022/06/05 11:49:53;;;;;;;8.63;4.37;;;;;;;28.08;40.90;99750.06;4450762;32;33949;-64
2022/06/05 11:52:41;;;;;;;6.55;4.57;;;;;;;27.78;40.90;99742.56;4434954;32;32080;-65
2022/06/05 11:55:23;;;;;;;6.32;4.53;;;;;;;28.10;40.45;99746.00;4449649;32;34450;-64
2022/06/05 11:58:06;;;;;;;6.45;4.60;;;;;;;27.78;41.53;99744.47;4449465;32;35022;-65
2022/06/05 12:00:47;;;;;;;6.32;4.60;;;;;;;28.49;40.47;99732.03;4451414;32;34581;-66
2022/06/05 12:03:25;;;;;;;6.15;4.75;;;;;;;28.06;40.37;99731.03;4451482;32;35062;-66
2022/06/05 12:06:21;;;;;;;7.30;4.85;;;;;;;27.90;40.36;99734.41;4442730;32;33437;-67
2022/06/05 12:08:57;;;;;;;6.50;4.57;;;;;;;27.87;40.10;99719.19;4447580;32;35425;-67
2022/06/05 12:11:36;;;;;;;8.35;5.30;;;;;;;27.94;40.63;99715.53;4439208;32;33779;-64
2022/06/05 12:14:29;;;;;;;6.55;4.78;;;;;;;27.87;39.58;99710.09;4451063;32;33797;-69
2022/06/05 12:17:14;;;;;;;7.40;4.68;;;;;;;27.87;39.44;99712.84;4443930;32;34030;-65
2022/06/05 12:20:05;;;;;;;8.15;4.45;;;;;;;27.28;40.98;99714.22;4448927;32;33943;-66
2022/06/05 12:22:40;;;;;;;7.68;4.50;;;;;;;27.40;41.35;99709.69;4441727;32;33825;-66
2022/06/05 12:25:18;;;;;;;6.62;4.45;;;;;;;27.66;39.90;99707.75;4434196;32;32624;-65